Time,TemperatureF,DewpointF,PressureIn,WindDirection,WindDirectionDegrees,WindSpeedMPH,WindSpeedGustMPH,Humidity,HourlyPrecipIn,Conditions,Clouds,dailyrainin,SoftwareType,DateUTC
2013-02-15 00:01:00,59.0,31.0,-100.00,WNW,293,0.0,0.0,35,0.00,,,0.00,,2013-02-15 05:01:00,
2013-02-15 00:11:00,59.0,31.0,-100.00,WNW,293,0.0,0.0,35,0.00,,,0.00,,2013-02-15 05:11:00,
2013-02-15 00:22:00,59.0,31.0,-100.00,SW,219,1.0,0.0,34,0.00,,,0.00,,2013-02-15 05:22:00,
2013-02-15 00:32:00,59.0,31.0,-100.00,SW,219,0.0,0.0,34,0.00,,,0.00,,2013-02-15 05:32:00,
2013-02-15 00:41:00,59.0,31.0,-100.00,SW,219,0.0,0.0,34,0.00,,,0.00,,2013-02-15 05:41:00,
2013-02-15 00:52:00,60.0,31.0,-100.00,NW,312,0.0,0.0,33,0.00,,,0.00,,2013-02-15 05:52:00,
2013-02-15 01:01:00,61.0,30.0,-100.00,NW,315,4.0,5.0,31,0.00,,,0.00,,2013-02-15 06:01:00,
2013-02-15 01:11:00,62.0,30.0,-100.00,NW,309,4.0,8.0,30,0.00,,,0.00,,2013-02-15 06:11:00,
2013-02-15 01:21:00,62.0,30.0,-100.00,NW,309,4.0,8.0,30,0.00,,,0.00,,2013-02-15 06:21:00,
2013-02-15 01:31:00,65.0,28.0,-100.00,NW,318,4.0,4.0,25,0.00,,,0.00,,2013-02-15 06:31:00,
2013-02-15 01:41:00,65.0,28.0,-100.00,NW,318,4.0,4.0,25,0.00,,,0.00,,2013-02-15 06:41:00,
2013-02-15 01:52:00,65.0,28.0,-100.00,NNW,335,6.0,6.0,25,0.00,,,0.00,,2013-02-15 06:52:00,
2013-02-15 02:01:00,66.0,29.0,-100.00,NNW,345,3.0,3.0,25,0.00,,,0.00,,2013-02-15 07:01:00,
2013-02-15 02:11:00,66.0,29.0,-100.00,NNW,345,3.0,3.0,25,0.00,,,0.00,,2013-02-15 07:11:00,
2013-02-15 02:21:00,64.0,28.0,-100.00,West,267,0.0,0.0,26,0.00,,,0.00,,2013-02-15 07:21:00,
2013-02-15 02:31:00,62.0,29.0,-100.00,SE,143,1.0,0.0,28,0.00,,,0.00,,2013-02-15 07:31:00,
2013-02-15 02:41:00,62.0,29.0,-100.00,SE,143,1.0,0.0,28,0.00,,,0.00,,2013-02-15 07:41:00,
2013-02-15 02:52:00,62.0,29.0,-100.00,WSW,240,4.0,4.0,28,0.00,,,0.00,,2013-02-15 07:52:00,
2013-02-15 03:01:00,62.0,29.0,-100.00,WSW,246,4.0,4.0,28,0.00,,,0.00,,2013-02-15 08:01:00,
2013-02-15 03:11:00,62.0,29.0,-100.00,NNE,31,0.0,0.0,28,0.00,,,0.00,,2013-02-15 08:11:00,
2013-02-15 03:21:00,62.0,29.0,-100.00,NNE,31,0.0,0.0,28,0.00,,,0.00,,2013-02-15 08:21:00,
2013-02-15 03:31:00,63.0,29.0,-100.00,NNE,31,0.0,0.0,27,0.00,,,0.00,,2013-02-15 08:31:00,
2013-02-15 03:41:00,63.0,29.0,-100.00,NNE,31,0.0,0.0,27,0.00,,,0.00,,2013-02-15 08:41:00,
2013-02-15 03:52:00,63.0,29.0,-100.00,NNE,31,0.0,0.0,27,0.00,,,0.00,,2013-02-15 08:52:00,
2013-02-15 04:01:00,63.0,29.0,-100.00,NNE,31,0.0,0.0,28,0.00,,,0.00,,2013-02-15 09:01:00,
2013-02-15 04:11:00,63.0,29.0,-100.00,NNE,31,0.0,0.0,28,0.00,,,0.00,,2013-02-15 09:11:00,
2013-02-15 04:21:00,61.0,29.0,-100.00,NNE,31,0.0,0.0,29,0.00,,,0.00,,2013-02-15 09:21:00,
2013-02-15 04:31:00,60.0,28.0,-100.00,NNE,31,0.0,0.0,30,0.00,,,0.00,,2013-02-15 09:31:00,
2013-02-15 04:41:00,60.0,28.0,-100.00,NNE,31,0.0,0.0,30,0.00,,,0.00,,2013-02-15 09:41:00,
2013-02-15 04:52:00,60.0,28.0,-100.00,NNE,31,0.0,0.0,30,0.00,,,0.00,,2013-02-15 09:52:00,
2013-02-15 05:01:00,60.0,28.0,-100.00,NNE,31,0.0,0.0,30,0.00,,,0.00,,2013-02-15 10:01:00,
2013-02-15 05:11:00,60.0,28.0,-100.00,NNE,31,0.0,0.0,30,0.00,,,0.00,,2013-02-15 10:11:00,
2013-02-15 05:21:00,61.0,29.0,-100.00,East,89,0.0,0.0,30,0.00,,,0.00,,2013-02-15 10:21:00,
2013-02-15 05:31:00,60.0,29.0,-100.00,East,89,0.0,0.0,31,0.00,,,0.00,,2013-02-15 10:31:00,
2013-02-15 05:41:00,60.0,29.0,-100.00,East,89,0.0,0.0,31,0.00,,,0.00,,2013-02-15 10:41:00,
2013-02-15 05:52:00,60.0,28.0,-100.00,East,89,0.0,0.0,30,0.00,,,0.00,,2013-02-15 10:52:00,
2013-02-15 06:01:00,60.0,28.0,-100.00,East,89,0.0,0.0,30,0.00,,,0.00,,2013-02-15 11:01:00,
2013-02-15 06:11:00,60.0,28.0,-100.00,East,89,0.0,0.0,30,0.00,,,0.00,,2013-02-15 11:11:00,
2013-02-15 06:22:00,60.0,29.0,-100.00,East,89,0.0,0.0,31,0.00,,,0.00,,2013-02-15 11:22:00,
2013-02-15 06:31:00,58.0,28.0,-100.00,East,89,0.0,0.0,32,0.00,,,0.00,,2013-02-15 11:31:00,
2013-02-15 06:42:00,58.0,28.0,-100.00,East,89,0.0,0.0,32,0.00,,,0.00,,2013-02-15 11:42:00,
2013-02-15 06:52:00,59.0,29.0,-100.00,East,89,0.0,0.0,32,0.00,,,0.00,,2013-02-15 11:52:00,
2013-02-15 07:01:00,59.0,29.0,-100.00,West,266,0.0,0.0,32,0.00,,,0.00,,2013-02-15 12:01:00,
2013-02-15 07:11:00,59.0,29.0,-100.00,West,266,0.0,0.0,32,0.00,,,0.00,,2013-02-15 12:11:00,
2013-02-15 07:21:00,59.0,29.0,-100.00,West,266,0.0,0.0,32,0.00,,,0.00,,2013-02-15 12:21:00,
2013-02-15 07:31:00,59.0,29.0,-100.00,West,266,0.0,0.0,32,0.00,,,0.00,,2013-02-15 12:31:00,
2013-02-15 07:42:00,59.0,29.0,-100.00,West,266,0.0,0.0,32,0.00,,,0.00,,2013-02-15 12:42:00,
2013-02-15 07:52:00,59.0,29.0,-100.00,NNW,336,0.0,0.0,32,0.00,,,0.00,,2013-02-15 12:52:00,
2013-02-15 08:02:00,59.0,29.0,-100.00,NNW,329,3.0,3.0,32,0.00,,,0.00,,2013-02-15 13:02:00,
2013-02-15 08:11:00,59.0,29.0,-100.00,NW,312,3.0,3.0,32,0.00,,,0.00,,2013-02-15 13:11:00,
2013-02-15 08:21:00,59.0,29.0,-100.00,NW,312,3.0,3.0,32,0.00,,,0.00,,2013-02-15 13:21:00,
2013-02-15 08:31:00,58.0,29.0,-100.00,NW,326,2.0,3.0,33,0.00,,,0.00,,2013-02-15 13:31:00,
2013-02-15 08:41:00,58.0,29.0,-100.00,NW,326,2.0,3.0,33,0.00,,,0.00,,2013-02-15 13:41:00,
2013-02-15 08:52:00,58.0,29.0,-100.00,NNW,332,1.0,2.0,33,0.00,,,0.00,,2013-02-15 13:52:00,
2013-02-15 09:01:00,59.0,29.0,-100.00,NW,312,3.0,0.0,32,0.00,,,0.00,,2013-02-15 14:01:00,
2013-02-15 09:11:00,59.0,29.0,-100.00,NW,312,3.0,0.0,32,0.00,,,0.00,,2013-02-15 14:11:00,
2013-02-15 09:21:00,59.0,29.0,-100.00,NNW,342,3.0,3.0,32,0.00,,,0.00,,2013-02-15 14:21:00,
2013-02-15 09:31:00,59.0,29.0,-100.00,NW,316,2.0,2.0,32,0.00,,,0.00,,2013-02-15 14:31:00,
2013-02-15 09:41:00,59.0,29.0,-100.00,NW,316,2.0,2.0,32,0.00,,,0.00,,2013-02-15 14:41:00,
2013-02-15 09:52:00,56.0,29.0,-100.00,NW,316,0.0,0.0,35,0.00,,,0.00,,2013-02-15 14:52:00,
2013-02-15 10:01:00,55.0,29.0,-100.00,NW,316,0.0,0.0,37,0.00,,,0.00,,2013-02-15 15:01:00,
2013-02-15 10:11:00,55.0,29.0,-100.00,NW,316,0.0,0.0,37,0.00,,,0.00,,2013-02-15 15:11:00,
2013-02-15 10:21:00,56.0,29.0,-100.00,NW,316,0.0,0.0,36,0.00,,,0.00,,2013-02-15 15:21:00,
2013-02-15 10:32:00,57.0,30.0,-100.00,NW,316,0.0,0.0,36,0.00,,,0.00,,2013-02-15 15:32:00,
2013-02-15 10:41:00,58.0,31.0,-100.00,SW,229,0.0,4.0,35,0.00,,,0.00,,2013-02-15 15:41:00,
2013-02-15 10:51:00,58.0,31.0,-100.00,SW,229,0.0,4.0,35,0.00,,,0.00,,2013-02-15 15:51:00,
2013-02-15 11:01:00,58.0,31.0,-100.00,WSW,248,4.0,6.0,35,0.00,,,0.00,,2013-02-15 16:01:00,
2013-02-15 11:11:00,58.0,31.0,-100.00,WSW,248,4.0,6.0,35,0.00,,,0.00,,2013-02-15 16:11:00,
2013-02-15 11:21:00,58.0,31.0,-100.00,West,260,4.0,4.0,35,0.00,,,0.00,,2013-02-15 16:21:00,
2013-02-15 11:31:00,59.0,30.0,-100.00,SW,235,6.0,6.0,33,0.00,,,0.00,,2013-02-15 16:31:00,
2013-02-15 11:42:00,59.0,30.0,-100.00,SW,235,6.0,6.0,33,0.00,,,0.00,,2013-02-15 16:42:00,
2013-02-15 11:51:00,60.0,31.0,-100.00,South,190,2.0,2.0,33,0.00,,,0.00,,2013-02-15 16:51:00,
2013-02-15 12:01:00,62.0,32.0,-100.00,SSW,211,2.0,2.0,32,0.00,,,0.00,,2013-02-15 17:01:00,
2013-02-15 12:11:00,66.0,33.0,-100.00,WNW,301,1.0,3.0,29,0.00,,,0.00,,2013-02-15 17:11:00,
2013-02-15 12:21:00,66.0,33.0,-100.00,WNW,301,1.0,3.0,29,0.00,,,0.00,,2013-02-15 17:21:00,
2013-02-15 12:31:00,67.0,32.0,-100.00,SW,218,2.0,2.0,27,0.00,,,0.00,,2013-02-15 17:31:00,
2013-02-15 12:41:00,67.0,32.0,-100.00,SW,218,2.0,2.0,27,0.00,,,0.00,,2013-02-15 17:41:00,
2013-02-15 12:52:00,67.0,29.0,-100.00,NW,312,6.0,6.0,24,0.00,,,0.00,,2013-02-15 17:52:00,
2013-02-15 13:01:00,67.0,29.0,-100.00,NW,322,7.0,7.0,24,0.00,,,0.00,,2013-02-15 18:01:00,
2013-02-15 13:11:00,67.0,29.0,-100.00,NW,322,7.0,7.0,24,0.00,,,0.00,,2013-02-15 18:11:00,
2013-02-15 13:21:00,68.0,29.0,-100.00,WSW,243,4.0,4.0,23,0.00,,,0.00,,2013-02-15 18:21:00,
2013-02-15 13:31:00,68.0,29.0,-100.00,WNW,298,5.0,5.0,23,0.00,,,0.00,,2013-02-15 18:31:00,
2013-02-15 13:41:00,68.0,29.0,-100.00,WNW,298,5.0,5.0,23,0.00,,,0.00,,2013-02-15 18:41:00,
2013-02-15 13:52:00,69.0,29.0,-100.00,NW,314,7.0,7.0,22,0.00,,,0.00,,2013-02-15 18:52:00,
2013-02-15 14:01:00,70.0,28.0,-100.00,NNW,336,2.0,6.0,21,0.00,,,0.00,,2013-02-15 19:01:00,
2013-02-15 14:11:00,70.0,28.0,-100.00,NNW,336,2.0,6.0,21,0.00,,,0.00,,2013-02-15 19:11:00,
2013-02-15 14:21:00,70.0,25.0,-100.00,NW,308,6.0,9.0,18,0.00,,,0.00,,2013-02-15 19:21:00,
2013-02-15 14:31:00,70.0,26.0,-100.00,NNW,329,6.0,6.0,19,0.00,,,0.00,,2013-02-15 19:31:00,
2013-02-15 14:41:00,70.0,26.0,-100.00,NNW,329,6.0,6.0,19,0.00,,,0.00,,2013-02-15 19:41:00,
2013-02-15 14:52:00,70.0,25.0,-100.00,NNW,335,5.0,7.0,18,0.00,,,0.00,,2013-02-15 19:52:00,
2013-02-15 15:01:00,70.0,23.0,-100.00,NW,326,6.0,8.0,17,0.00,,,0.00,,2013-02-15 20:01:00,
2013-02-15 15:11:00,70.0,23.0,-100.00,NW,326,6.0,8.0,17,0.00,,,0.00,,2013-02-15 20:11:00,
2013-02-15 15:21:00,71.0,24.0,-100.00,NNW,338,5.0,8.0,17,0.00,,,0.00,,2013-02-15 20:21:00,
2013-02-15 15:32:00,71.0,24.0,-100.00,NNW,328,7.0,7.0,17,0.00,,,0.00,,2013-02-15 20:32:00,
2013-02-15 15:42:00,71.0,24.0,-100.00,NNW,328,7.0,7.0,17,0.00,,,0.00,,2013-02-15 20:42:00,
2013-02-15 15:52:00,72.0,23.0,-100.00,NNW,347,5.0,5.0,16,0.00,,,0.00,,2013-02-15 20:52:00,
2013-02-15 16:01:00,73.0,23.0,-100.00,North,354,5.0,5.0,15,0.00,,,0.00,,2013-02-15 21:01:00,
2013-02-15 16:11:00,73.0,23.0,-100.00,North,354,5.0,5.0,15,0.00,,,0.00,,2013-02-15 21:11:00,
2013-02-15 16:21:00,74.0,22.0,-100.00,NNW,347,7.0,7.0,14,0.00,,,0.00,,2013-02-15 21:21:00,
2013-02-15 16:31:00,74.0,22.0,-100.00,North,359,4.0,5.0,14,0.00,,,0.00,,2013-02-15 21:31:00,
2013-02-15 16:42:00,74.0,22.0,-100.00,North,359,4.0,5.0,14,0.00,,,0.00,,2013-02-15 21:42:00,
2013-02-15 16:52:00,75.0,23.0,-100.00,NNW,332,6.0,7.0,14,0.00,,,0.00,,2013-02-15 21:52:00,
2013-02-15 17:01:00,75.0,23.0,-100.00,North,354,3.0,3.0,14,0.00,,,0.00,,2013-02-15 22:01:00,
2013-02-15 17:11:00,75.0,23.0,-100.00,North,354,6.0,6.0,14,0.00,,,0.00,,2013-02-15 22:11:00,
2013-02-15 17:21:00,75.0,23.0,-100.00,North,354,6.0,6.0,14,0.00,,,0.00,,2013-02-15 22:21:00,
2013-02-15 17:31:00,75.0,21.0,-100.00,NNW,336,6.0,6.0,13,0.00,,,0.00,,2013-02-15 22:31:00,
2013-02-15 17:41:00,75.0,21.0,-100.00,NNW,336,6.0,6.0,13,0.00,,,0.00,,2013-02-15 22:41:00,
2013-02-15 17:52:00,77.0,20.0,-100.00,NW,326,5.0,6.0,12,0.00,,,0.00,,2013-02-15 22:52:00,
2013-02-15 18:01:00,77.0,20.0,-100.00,NNW,329,1.0,0.0,12,0.00,,,0.00,,2013-02-15 23:01:00,
2013-02-15 18:11:00,77.0,20.0,-100.00,NNW,329,1.0,0.0,12,0.00,,,0.00,,2013-02-15 23:11:00,
2013-02-15 18:21:00,78.0,21.0,-100.00,West,273,2.0,0.0,12,0.00,,,0.00,,2013-02-15 23:21:00,
2013-02-15 18:31:00,79.0,22.0,-100.00,SSW,210,0.0,0.0,12,0.00,,,0.00,,2013-02-15 23:31:00,
2013-02-15 18:41:00,79.0,22.0,-100.00,SSW,210,0.0,0.0,12,0.00,,,0.00,,2013-02-15 23:41:00,
2013-02-15 18:52:00,79.0,20.0,-100.00,NW,323,5.0,6.0,11,0.00,,,0.00,,2013-02-15 23:52:00,
2013-02-15 19:01:00,78.0,21.0,-100.00,WNW,283,2.0,3.0,12,0.00,,,0.00,,2013-02-16 00:01:00,
2013-02-15 19:11:00,78.0,21.0,-100.00,WNW,283,2.0,3.0,12,0.00,,,0.00,,2013-02-16 00:11:00,
2013-02-15 19:21:00,78.0,21.0,-100.00,West,259,4.0,5.0,12,0.00,,,0.00,,2013-02-16 00:21:00,
2013-02-15 19:31:00,78.0,23.0,-100.00,SSW,201,3.0,3.0,13,0.00,,,0.00,,2013-02-16 00:31:00,
2013-02-15 19:41:00,78.0,23.0,-100.00,SSW,201,3.0,3.0,13,0.00,,,0.00,,2013-02-16 00:41:00,
2013-02-15 19:52:00,78.0,23.0,-100.00,SSW,201,3.0,3.0,13,0.00,,,0.00,,2013-02-16 00:52:00,
2013-02-15 20:01:00,76.0,23.0,-100.00,SSW,204,0.0,0.0,14,0.00,,,0.00,,2013-02-16 01:01:00,
2013-02-15 20:11:00,76.0,23.0,-100.00,SSW,204,0.0,0.0,14,0.00,,,0.00,,2013-02-16 01:11:00,
2013-02-15 20:21:00,76.0,23.0,-100.00,SSW,211,2.0,3.0,14,0.00,,,0.00,,2013-02-16 01:21:00,
2013-02-15 20:31:00,73.0,23.0,-100.00,WNW,288,6.0,6.0,15,0.00,,,0.00,,2013-02-16 01:31:00,
2013-02-15 20:41:00,73.0,23.0,-100.00,WNW,288,6.0,6.0,15,0.00,,,0.00,,2013-02-16 01:41:00,
2013-02-15 20:51:00,72.0,23.0,-100.00,West,270,6.0,6.0,16,0.00,,,0.00,,2013-02-16 01:51:00,
2013-02-15 21:01:00,70.0,23.0,-100.00,West,263,4.0,4.0,17,0.00,,,0.00,,2013-02-16 02:01:00,
2013-02-15 21:11:00,69.0,22.0,-100.00,WNW,298,2.0,2.0,17,0.00,,,0.00,,2013-02-16 02:11:00,
2013-02-15 21:21:00,69.0,22.0,-100.00,WNW,298,2.0,2.0,17,0.00,,,0.00,,2013-02-16 02:21:00,
2013-02-15 21:31:00,69.0,24.0,-100.00,SW,231,3.0,3.0,18,0.00,,,0.00,,2013-02-16 02:31:00,
2013-02-15 21:42:00,69.0,24.0,-100.00,SW,231,3.0,3.0,18,0.00,,,0.00,,2013-02-16 02:42:00,
2013-02-15 21:52:00,67.0,23.0,-100.00,SW,224,0.0,0.0,19,0.00,,,0.00,,2013-02-16 02:52:00,
2013-02-15 22:01:00,65.0,26.0,-100.00,NNE,31,0.0,0.0,23,0.00,,,0.00,,2013-02-16 03:01:00,
2013-02-15 22:11:00,64.0,25.0,-100.00,NNE,31,0.0,0.0,23,0.00,,,0.00,,2013-02-16 03:11:00,
2013-02-15 22:21:00,64.0,25.0,-100.00,NNE,31,0.0,0.0,23,0.00,,,0.00,,2013-02-16 03:21:00,
2013-02-15 22:31:00,64.0,24.0,-100.00,NNE,31,0.0,0.0,22,0.00,,,0.00,,2013-02-16 03:31:00,
2013-02-15 22:41:00,64.0,24.0,-100.00,NNE,31,0.0,0.0,22,0.00,,,0.00,,2013-02-16 03:41:00,
2013-02-15 22:52:00,64.0,25.0,-100.00,NNE,31,0.0,0.0,23,0.00,,,0.00,,2013-02-16 03:52:00,
2013-02-15 23:01:00,65.0,25.0,-100.00,NNE,31,0.0,0.0,22,0.00,,,0.00,,2013-02-16 04:01:00,
2013-02-15 23:11:00,66.0,25.0,-100.00,North,356,0.0,0.0,21,0.00,,,0.00,,2013-02-16 04:11:00,
2013-02-15 23:21:00,66.0,25.0,-100.00,North,356,0.0,0.0,21,0.00,,,0.00,,2013-02-16 04:21:00,
2013-02-15 23:31:00,65.0,24.0,-100.00,NW,304,0.0,0.0,21,0.00,,,0.00,,2013-02-16 04:31:00,
2013-02-15 23:41:00,65.0,24.0,-100.00,NW,304,0.0,0.0,21,0.00,,,0.00,,2013-02-16 04:41:00,
2013-02-15 23:52:00,66.0,24.0,-100.00,North,4,0.0,0.0,20,0.00,,,0.00,,2013-02-16 04:52:00,